createdAt,value
2018-06-23T00:01:08.323Z,21.79
2018-06-23T00:03:39.482Z,21.56
2018-06-23T00:06:10.507Z,21.54
2018-06-23T00:08:41.796Z,21.64
2018-06-23T00:11:14.640Z,21.49
2018-06-23T00:13:45.864Z,21.39
2018-06-23T00:16:16.900Z,21.35
2018-06-23T00:18:49.137Z,21.44
2018-06-23T00:21:20.115Z,21.56
2018-06-23T00:23:51.175Z,21.47
2018-06-23T00:26:27.033Z,21.37
2018-06-23T00:28:58.254Z,21.32
2018-06-23T00:31:29.146Z,21.38
2018-06-23T00:34:00.952Z,21.31
2018-06-23T00:36:32.181Z,21.42
2018-06-23T00:39:03.015Z,21.29
2018-06-23T00:41:33.994Z,21.27
2018-06-23T00:44:05.170Z,21.04
2018-06-23T00:46:36.332Z,20.91
2018-06-23T00:49:07.348Z,20.99
2018-06-23T00:51:38.671Z,20.95
2018-06-23T00:54:09.861Z,20.73
2018-06-23T00:56:41.952Z,20.79
2018-06-23T00:59:23.533Z,20.93
2018-06-23T01:01:54.646Z,20.75
2018-06-23T01:04:26.559Z,20.43
2018-06-23T01:06:58.135Z,20.50
2018-06-23T01:09:29.594Z,20.67
2018-06-23T01:12:01.063Z,20.66
2018-06-23T01:14:33.065Z,20.59
2018-06-23T01:17:04.169Z,20.70
2018-06-23T01:19:35.232Z,20.60
2018-06-23T01:22:07.069Z,20.64
2018-06-23T01:24:38.126Z,20.75
2018-06-23T01:27:09.132Z,20.88
2018-06-23T01:29:41.167Z,20.88
2018-06-23T01:32:12.939Z,20.94
2018-06-23T01:34:44.443Z,20.96
2018-06-23T01:37:15.386Z,20.91
2018-06-23T01:39:46.934Z,20.90
2018-06-23T01:42:17.966Z,20.95
2018-06-23T01:44:48.901Z,21.06
2018-06-23T01:47:20.234Z,21.10
2018-06-23T01:49:51.428Z,21.06
2018-06-23T01:52:23.465Z,21.15
2018-06-23T01:54:54.596Z,21.13
2018-06-23T01:57:25.462Z,21.17
2018-06-23T01:59:56.846Z,21.20
2018-06-23T02:02:27.787Z,21.19
2018-06-23T02:04:58.782Z,21.24
2018-06-23T02:07:29.922Z,21.25
2018-06-23T02:10:00.974Z,21.23
2018-06-23T02:12:32.073Z,21.24
2018-06-23T02:15:08.176Z,21.35
2018-06-23T02:17:44.337Z,21.32
2018-06-23T02:20:20.355Z,21.35
2018-06-23T02:22:56.236Z,21.30
2018-06-23T02:25:32.057Z,21.38
2018-06-23T02:28:08.010Z,21.34
2018-06-23T02:30:44.106Z,21.40
2018-06-23T02:33:19.883Z,21.33
2018-06-23T02:35:50.917Z,21.24
2018-06-23T02:38:21.897Z,21.27
2018-06-23T02:40:53.500Z,21.34
2018-06-23T02:43:25.353Z,21.41
2018-06-23T02:45:57.460Z,21.41
2018-06-23T02:48:28.477Z,21.37
2018-06-23T02:50:59.453Z,21.31
2018-06-23T02:53:31.597Z,21.28
2018-06-23T02:56:03.779Z,21.34
2018-06-23T02:58:34.833Z,21.33
2018-06-23T03:01:05.994Z,21.28
2018-06-23T03:03:36.961Z,21.35
2018-06-23T03:06:09.323Z,21.26
2018-06-23T03:08:40.625Z,21.30
2018-06-23T03:11:12.919Z,21.33
2018-06-23T03:13:43.727Z,21.11
2018-06-23T03:16:14.764Z,21.15
2018-06-23T03:18:45.829Z,21.27
2018-06-23T03:21:16.943Z,21.26
2018-06-23T03:23:48.303Z,21.29
2018-06-23T03:26:19.344Z,21.21
2018-06-23T03:28:50.454Z,21.28
2018-06-23T03:31:21.649Z,21.18
2018-06-23T03:33:53.389Z,21.18
2018-06-23T03:36:25.151Z,21.20
2018-06-23T03:38:56.092Z,21.13
2018-06-23T03:41:27.240Z,21.27
2018-06-23T03:43:58.378Z,21.25
2018-06-23T03:46:29.473Z,21.28
2018-06-23T03:49:00.451Z,21.30
2018-06-23T03:51:31.686Z,21.34
2018-06-23T03:54:02.959Z,21.42
2018-06-23T03:56:34.254Z,21.33
2018-06-23T03:59:05.299Z,21.45
2018-06-23T04:01:36.532Z,21.46
2018-06-23T04:04:07.508Z,21.45
2018-06-23T04:06:38.688Z,21.57
2018-06-23T04:09:11.252Z,21.38
2018-06-23T04:11:42.678Z,21.46
2018-06-23T04:14:13.969Z,21.49
2018-06-23T04:16:44.923Z,21.55
2018-06-23T04:19:16.000Z,21.41
2018-06-23T04:21:47.122Z,21.50
2018-06-23T04:24:18.752Z,21.51
2018-06-23T04:26:49.828Z,21.28
2018-06-23T04:29:21.157Z,21.45
2018-06-23T04:31:52.192Z,21.30
2018-06-23T04:34:23.978Z,21.49
2018-06-23T04:36:55.279Z,21.56
2018-06-23T04:39:26.611Z,21.50
2018-06-23T04:41:57.715Z,21.07
2018-06-23T04:44:28.702Z,20.96
2018-06-23T04:46:59.914Z,21.04
2018-06-23T04:49:30.783Z,21.30
2018-06-23T04:52:01.891Z,20.98
2018-06-23T04:54:33.411Z,20.78
2018-06-23T04:57:05.665Z,20.52
2018-06-23T04:59:36.958Z,19.72
2018-06-23T05:02:08.987Z,19.66
2018-06-23T05:04:40.162Z,19.82
2018-06-23T05:07:11.490Z,19.63
2018-06-23T05:09:42.847Z,19.55
2018-06-23T05:12:13.889Z,19.31
2018-06-23T05:14:45.180Z,19.10
2018-06-23T05:17:18.474Z,18.93
2018-06-23T05:19:49.829Z,18.80
2018-06-23T05:22:20.875Z,18.75
2018-06-23T05:24:52.173Z,18.75
2018-06-23T05:27:23.253Z,18.55
2018-06-23T05:29:55.721Z,18.70
2018-06-23T05:32:27.282Z,18.64
2018-06-23T05:34:59.072Z,18.47
2018-06-23T05:37:30.503Z,18.47
2018-06-23T05:40:02.235Z,18.43
2018-06-23T05:42:32.925Z,18.33
2018-06-23T05:45:03.950Z,18.40
2018-06-23T05:47:35.135Z,18.39
2018-06-23T05:50:06.246Z,18.38
2018-06-23T05:52:38.529Z,18.35
2018-06-23T05:55:11.177Z,18.17
2018-06-23T05:57:42.205Z,17.98
2018-06-23T06:00:13.045Z,18.09
2018-06-23T06:02:44.652Z,18.12
2018-06-23T06:05:15.556Z,18.16
2018-06-23T06:07:48.799Z,18.13
2018-06-23T06:10:21.251Z,18.26
2018-06-23T06:12:52.254Z,18.29
2018-06-23T06:15:25.960Z,18.05
2018-06-23T06:17:57.676Z,17.98
2018-06-23T06:20:28.969Z,17.86
2018-06-23T06:23:00.621Z,17.83
2018-06-23T06:25:31.860Z,17.62
2018-06-23T06:28:02.859Z,17.63
2018-06-23T06:30:33.729Z,17.53
2018-06-23T06:33:04.905Z,17.60
2018-06-23T06:35:36.079Z,17.68
2018-06-23T06:38:08.354Z,17.58
2018-06-23T06:40:39.665Z,17.56
2018-06-23T06:43:11.030Z,17.64
2018-06-23T06:45:42.209Z,17.55
2018-06-23T06:48:13.386Z,17.79
2018-06-23T06:50:44.595Z,17.87
2018-06-23T06:53:15.780Z,17.97
2018-06-23T06:55:46.813Z,18.09
2018-06-23T06:58:17.862Z,18.09
2018-06-23T07:00:50.168Z,18.05
2018-06-23T07:03:21.385Z,18.01
2018-06-23T07:05:52.657Z,18.16
2018-06-23T07:08:23.565Z,18.18
2018-06-23T07:10:55.749Z,18.13
2018-06-23T07:13:26.776Z,18.14
2018-06-23T07:15:58.631Z,18.31
2018-06-23T07:18:29.969Z,18.30
2018-06-23T07:21:01.443Z,18.39
2018-06-23T07:23:33.683Z,18.49
2018-06-23T07:26:04.818Z,18.53
2018-06-23T07:28:36.312Z,18.59
2018-06-23T07:31:07.381Z,18.68
2018-06-23T07:33:39.168Z,18.87
2018-06-23T07:36:11.097Z,19.19
2018-06-23T07:38:43.338Z,19.10
2018-06-23T07:41:14.570Z,19.44
2018-06-23T07:43:45.457Z,19.65
2018-06-23T07:46:16.611Z,19.63
2018-06-23T07:48:48.123Z,19.66
2018-06-23T07:51:19.293Z,19.55
2018-06-23T07:53:51.158Z,19.51
2018-06-23T07:56:22.663Z,19.39
2018-06-23T07:58:54.164Z,19.21
2018-06-23T08:01:25.207Z,19.21
2018-06-23T08:03:56.994Z,19.25
2018-06-23T08:06:28.124Z,19.17
2018-06-23T08:08:59.366Z,19.28
2018-06-23T08:11:30.556Z,19.26
2018-06-23T08:14:02.774Z,19.51
2018-06-23T08:16:34.383Z,19.90
2018-06-23T08:19:05.420Z,19.95
2018-06-23T08:21:36.713Z,20.00
2018-06-23T08:24:08.238Z,20.11
2018-06-23T08:26:40.314Z,20.09
2018-06-23T08:29:11.518Z,19.84
2018-06-23T08:31:42.935Z,19.83
2018-06-23T08:34:14.115Z,19.65
2018-06-23T08:36:45.232Z,19.83
2018-06-23T08:39:16.440Z,19.37
2018-06-23T08:41:47.798Z,19.45
2018-06-23T08:44:19.019Z,19.39
2018-06-23T08:46:51.803Z,19.39
2018-06-23T08:49:23.433Z,19.40
2018-06-23T08:51:54.890Z,19.19
2018-06-23T08:54:27.773Z,19.18
2018-06-23T08:56:59.702Z,19.18
2018-06-23T08:59:31.683Z,19.10
2018-06-23T09:02:02.943Z,19.09
2018-06-23T09:04:34.239Z,19.15
2018-06-23T09:07:05.252Z,19.11
2018-06-23T09:09:37.336Z,19.27
2018-06-23T09:12:08.389Z,19.49
2018-06-23T10:26:37.570Z,22.06
2018-06-23T10:29:08.880Z,22.27
2018-06-23T10:31:40.129Z,21.87
2018-06-23T10:34:11.087Z,22.03
2018-06-23T10:36:42.340Z,21.66
2018-06-23T10:39:13.571Z,21.71
2018-06-23T10:44:58.953Z,21.57
2018-06-23T10:47:30.331Z,21.67
2018-06-23T10:50:01.200Z,21.84
2018-06-23T10:52:31.873Z,22.09
2018-06-23T10:55:03.038Z,22.01
2018-06-23T10:57:33.993Z,22.01
2018-06-23T11:00:05.401Z,21.66
2018-06-23T11:02:36.448Z,21.18
2018-06-23T11:05:07.318Z,20.97
2018-06-23T11:07:38.134Z,20.78
2018-06-23T11:10:09.059Z,20.62
2018-06-23T11:12:39.940Z,20.48
2018-06-23T11:15:10.430Z,20.47
2018-06-23T11:17:41.189Z,20.43
2018-06-23T11:20:12.009Z,20.21
2018-06-23T11:22:43.037Z,20.23
2018-06-23T11:25:14.012Z,20.22
2018-06-23T11:27:44.910Z,20.28
2018-06-23T11:30:15.866Z,20.25
2018-06-23T11:32:46.648Z,20.13
2018-06-23T11:35:17.531Z,19.80
2018-06-23T11:37:48.317Z,19.63
2018-06-23T11:40:19.040Z,19.54
2018-06-23T11:42:50.017Z,19.48
2018-06-23T11:45:21.111Z,19.29
2018-06-23T11:47:52.067Z,19.35
2018-06-23T11:50:22.977Z,19.18
2018-06-23T11:52:53.950Z,19.08
2018-06-23T11:55:24.733Z,18.84
2018-06-23T11:57:55.475Z,18.92
2018-06-23T12:00:26.728Z,18.96
2018-06-23T12:02:57.472Z,18.97
2018-06-23T12:05:29.309Z,18.82
2018-06-23T12:08:00.631Z,18.67
2018-06-23T12:10:31.589Z,18.56
2018-06-23T12:13:02.469Z,18.38
2018-06-23T12:15:33.377Z,18.18
2018-06-23T12:18:04.287Z,18.37
2018-06-23T12:20:35.339Z,18.53
2018-06-23T12:23:06.178Z,18.57
2018-06-23T12:25:37.239Z,18.52
2018-06-23T12:28:08.638Z,18.33
2018-06-23T12:30:40.357Z,18.45
2018-06-23T12:33:11.097Z,18.70
2018-06-23T12:35:42.082Z,18.82
2018-06-23T12:38:13.074Z,18.96
2018-06-23T12:40:44.140Z,19.06
2018-06-23T12:43:15.303Z,19.40
2018-06-23T12:45:46.687Z,19.96
2018-06-23T12:48:17.500Z,20.32
2018-06-23T12:50:48.192Z,20.50
2018-06-23T12:53:19.141Z,20.70
2018-06-23T12:55:50.091Z,20.77
2018-06-23T12:58:21.053Z,20.85
2018-06-23T13:00:52.009Z,20.99
2018-06-23T13:03:22.837Z,21.37
2018-06-23T13:05:54.140Z,21.65
2018-06-23T13:08:25.387Z,21.54
2018-06-23T13:10:56.241Z,21.45
2018-06-23T13:13:27.205Z,21.47
2018-06-23T13:15:58.142Z,21.11
2018-06-23T13:18:28.937Z,21.32
2018-06-23T13:20:59.876Z,21.32
2018-06-23T13:23:30.792Z,21.35
2018-06-23T13:26:02.598Z,21.29
2018-06-23T13:28:33.254Z,21.23
2018-06-23T13:31:04.096Z,21.20
2018-06-23T13:33:34.987Z,21.35
2018-06-23T13:36:06.253Z,21.30
2018-06-23T13:38:37.193Z,21.11
2018-06-23T13:41:08.254Z,20.80
2018-06-23T13:43:39.140Z,21.00
2018-06-23T13:46:11.721Z,21.14
2018-06-23T13:48:42.637Z,21.14
2018-06-23T13:51:14.146Z,21.31
2018-06-23T13:53:44.861Z,21.50
2018-06-23T13:56:15.873Z,21.70
2018-06-23T13:58:47.002Z,21.56
2018-06-23T14:01:17.846Z,21.60
2018-06-23T14:03:48.624Z,21.30
2018-06-23T14:06:19.619Z,21.50
2018-06-23T14:08:50.527Z,21.69
2018-06-23T14:11:22.101Z,21.66
2018-06-23T14:13:53.436Z,21.60
2018-06-23T14:16:25.431Z,21.83
2018-06-23T14:18:56.129Z,21.92
2018-06-23T14:21:27.084Z,21.94
2018-06-23T14:23:57.875Z,22.01
2018-06-23T14:26:28.632Z,21.72
2018-06-23T14:28:59.739Z,21.75
2018-06-23T14:31:30.806Z,21.60
2018-06-23T14:34:01.882Z,21.73
2018-06-23T14:36:32.879Z,21.87
2018-06-23T14:39:03.828Z,21.92
2018-06-23T14:41:34.837Z,22.08
2018-06-23T14:44:05.864Z,21.97
2018-06-23T14:46:36.731Z,21.94
2018-06-23T14:49:07.534Z,21.80
2018-06-23T14:51:38.949Z,21.70
2018-06-23T14:54:09.646Z,21.61
2018-06-23T14:56:40.358Z,21.49
2018-06-23T15:01:41.515Z,21.24
2018-06-23T15:04:12.189Z,21.27
2018-06-23T15:06:43.736Z,21.24
2018-06-23T15:09:25.152Z,21.31
2018-06-23T15:12:06.545Z,21.44
2018-06-23T15:14:37.425Z,21.21
2018-06-23T15:17:08.278Z,21.17
2018-06-23T15:19:39.054Z,21.11
2018-06-23T15:22:09.907Z,21.13
2018-06-23T15:24:40.873Z,21.18
2018-06-23T15:27:11.783Z,21.09
2018-06-23T15:29:42.682Z,21.18
2018-06-23T15:32:13.522Z,21.09
2018-06-23T15:34:44.271Z,21.16
2018-06-23T15:37:15.240Z,20.98
2018-06-23T15:39:46.530Z,21.16
2018-06-23T15:42:17.300Z,21.09
2018-06-23T15:44:48.018Z,21.16
2018-06-23T15:47:19.635Z,21.15
2018-06-23T15:49:50.321Z,21.11
2018-06-23T15:52:21.119Z,21.10
2018-06-23T15:54:51.994Z,21.10
2018-06-23T15:57:22.818Z,21.05
2018-06-23T15:59:53.808Z,21.05
2018-06-23T16:02:24.475Z,20.82
2018-06-23T16:04:55.288Z,21.06
2018-06-23T16:07:25.977Z,20.96
2018-06-23T16:09:56.822Z,21.28
2018-06-23T16:12:27.717Z,21.37
2018-06-23T16:14:58.477Z,21.43
2018-06-23T16:17:29.255Z,21.26
2018-06-23T16:19:59.968Z,21.38
2018-06-23T16:22:32.057Z,21.10
2018-06-23T16:25:02.787Z,21.05
2018-06-23T16:27:33.517Z,21.06
2018-06-23T16:30:04.375Z,21.06
2018-06-23T16:32:35.112Z,21.15
2018-06-23T16:35:05.913Z,21.10
2018-06-23T16:37:36.808Z,20.92
2018-06-23T16:40:07.617Z,20.72
2018-06-23T16:42:38.320Z,20.70
2018-06-23T16:45:09.002Z,20.61
2018-06-23T16:47:40.310Z,20.41
2018-06-23T16:50:11.340Z,19.85
2018-06-23T16:52:42.753Z,20.14
2018-06-23T16:55:13.351Z,20.07
2018-06-23T16:57:44.077Z,20.04
2018-06-23T17:00:15.994Z,19.96
2018-06-23T17:02:46.995Z,20.02
2018-06-23T17:05:17.670Z,19.98
2018-06-23T17:07:48.360Z,19.91
2018-06-23T17:10:19.088Z,19.81
2018-06-23T17:12:49.895Z,19.74
2018-06-23T17:15:20.613Z,19.52
2018-06-23T17:17:53.078Z,19.54
2018-06-23T17:20:23.839Z,19.40
2018-06-23T17:22:54.496Z,19.39
2018-06-23T17:25:25.302Z,19.34
2018-06-23T17:27:56.092Z,19.36
2018-06-23T17:30:26.865Z,19.31
2018-06-23T17:32:57.573Z,19.20
2018-06-23T17:35:28.241Z,19.14
2018-06-23T17:37:58.929Z,19.17
2018-06-23T17:40:29.567Z,19.04
2018-06-23T17:43:00.302Z,19.03
2018-06-23T17:45:31.048Z,18.93
2018-06-23T17:48:02.033Z,18.61
2018-06-23T17:50:32.964Z,18.68
2018-06-23T17:53:03.861Z,18.61
2018-06-23T17:55:34.930Z,18.54
2018-06-23T17:58:05.885Z,18.47
2018-06-23T18:00:36.969Z,18.19
2018-06-23T18:03:07.943Z,18.09
2018-06-23T18:05:38.676Z,18.01
2018-06-23T18:08:09.595Z,18.00
2018-06-23T18:10:40.959Z,17.92
2018-06-23T18:13:11.907Z,17.69
2018-06-23T18:15:43.048Z,17.63
2018-06-23T18:18:14.016Z,17.53
2018-06-23T18:20:45.655Z,17.58
2018-06-23T18:23:16.417Z,17.44
2018-06-23T18:25:47.212Z,17.25
2018-06-23T18:28:19.362Z,17.16
2018-06-23T18:30:50.268Z,17.15
2018-06-23T18:33:21.132Z,16.99
2018-06-23T18:35:51.892Z,17.05
2018-06-23T18:38:22.655Z,16.96
2018-06-23T18:40:53.470Z,16.92
2018-06-23T18:43:24.269Z,16.77
2018-06-23T18:45:55.006Z,16.71
2018-06-23T18:48:25.822Z,16.55
2018-06-23T18:50:57.102Z,16.33
2018-06-23T18:53:27.869Z,16.28
2018-06-23T18:55:58.490Z,16.38
2018-06-23T18:58:29.510Z,16.50
2018-06-23T19:01:00.655Z,16.63
2018-06-23T19:03:31.522Z,16.73
2018-06-23T19:06:02.217Z,16.73
2018-06-23T19:08:32.988Z,16.74
2018-06-23T19:11:03.726Z,16.67
2018-06-23T19:13:34.593Z,16.70
2018-06-23T19:16:05.322Z,16.69
2018-06-23T19:18:36.077Z,16.74
2018-06-23T19:21:07.121Z,16.68
2018-06-23T19:23:37.848Z,16.74
2018-06-23T19:26:08.520Z,16.78
2018-06-23T19:28:39.654Z,16.72
2018-06-23T19:31:10.677Z,16.78
2018-06-23T19:33:41.568Z,16.80
2018-06-23T19:36:12.346Z,16.64
2018-06-23T19:38:43.139Z,16.80
2018-06-23T19:41:24.443Z,16.76
2018-06-23T19:43:56.273Z,16.78
2018-06-23T19:46:27.428Z,16.76
2018-06-23T19:48:58.866Z,16.81
2018-06-23T19:51:29.757Z,16.76
2018-06-23T19:54:00.742Z,16.78
2018-06-23T19:56:31.425Z,16.76
2018-06-23T19:59:02.233Z,16.89
2018-06-23T20:01:33.096Z,16.88
2018-06-23T20:04:03.812Z,16.89
2018-06-23T20:06:34.629Z,16.92
2018-06-23T20:09:08.157Z,17.02
2018-06-23T20:11:39.281Z,17.05
2018-06-23T20:14:10.358Z,17.11
2018-06-23T20:16:41.344Z,17.11
2018-06-23T20:19:12.511Z,17.22
2018-06-23T20:21:43.727Z,17.23
2018-06-23T20:24:15.194Z,17.12
2018-06-23T20:26:46.379Z,17.19
2018-06-23T20:29:17.765Z,17.29
2018-06-23T20:31:49.208Z,17.23
2018-06-23T20:34:20.477Z,17.12
2018-06-23T20:36:51.740Z,16.99
2018-06-23T20:39:23.679Z,17.04
2018-06-23T20:41:54.943Z,17.05
2018-06-23T20:44:26.025Z,17.16
2018-06-23T20:46:57.395Z,17.18
2018-06-23T20:49:28.526Z,17.23
2018-06-23T20:51:59.593Z,17.23
2018-06-23T20:54:30.891Z,17.31
2018-06-23T20:57:02.015Z,17.33
2018-06-23T20:59:33.090Z,17.34
2018-06-23T21:02:04.151Z,17.34
2018-06-23T21:04:35.296Z,17.31
2018-06-23T21:07:06.566Z,17.25
2018-06-23T21:09:37.683Z,17.26
2018-06-23T21:12:09.079Z,17.15
2018-06-23T21:14:40.166Z,17.29
2018-06-23T21:17:11.304Z,17.31
2018-06-23T21:19:42.718Z,17.24
2018-06-23T21:22:14.979Z,17.32
2018-06-23T21:24:46.298Z,17.04
2018-06-23T21:27:17.482Z,17.43
2018-06-23T21:29:48.788Z,17.49
2018-06-23T21:32:20.460Z,17.51
2018-06-23T21:34:51.590Z,17.47
2018-06-23T21:37:22.691Z,17.46
2018-06-23T21:39:54.064Z,17.42
2018-06-23T21:42:27.220Z,17.46
2018-06-23T21:44:58.185Z,17.32
2018-06-23T21:47:29.133Z,17.15
2018-06-23T21:50:00.410Z,17.28
2018-06-23T21:52:31.547Z,17.33
2018-06-23T21:55:02.975Z,17.37
2018-06-23T21:57:34.141Z,17.43
2018-06-23T22:00:10.864Z,17.40
2018-06-23T22:02:42.018Z,17.50
2018-06-23T22:05:12.905Z,17.60
2018-06-23T22:07:44.380Z,17.58
2018-06-23T22:10:15.413Z,17.61
2018-06-23T22:12:46.550Z,17.55
2018-06-23T22:15:18.061Z,17.50
2018-06-23T22:17:49.338Z,17.45
2018-06-23T22:20:21.028Z,17.41
2018-06-23T22:22:52.882Z,17.35
2018-06-23T22:25:24.670Z,17.33
2018-06-23T22:27:55.553Z,17.30
2018-06-23T22:30:26.652Z,17.30
2018-06-23T22:32:57.823Z,17.25
2018-06-23T22:35:29.246Z,17.25
2018-06-23T22:38:00.247Z,17.20
2018-06-23T22:40:31.457Z,17.13
2018-06-23T22:43:02.477Z,16.99
2018-06-23T22:45:33.422Z,17.07
2018-06-23T22:48:05.514Z,17.03
2018-06-23T22:50:36.761Z,17.07
2018-06-23T22:53:07.868Z,17.05
2018-06-23T22:55:38.929Z,16.96
2018-06-23T22:58:09.955Z,17.00
2018-06-23T23:00:42.431Z,16.71
2018-06-23T23:03:13.751Z,16.75
2018-06-23T23:05:44.786Z,16.86
2018-06-23T23:08:16.002Z,16.85
2018-06-23T23:10:48.320Z,16.88
2018-06-23T23:13:19.685Z,16.92
2018-06-23T23:15:50.883Z,16.95
2018-06-23T23:18:21.901Z,16.79
2018-06-23T23:20:52.960Z,16.68
2018-06-23T23:23:24.053Z,16.78
2018-06-23T23:25:55.257Z,16.84
2018-06-23T23:28:26.349Z,16.89
2018-06-23T23:30:57.631Z,16.87
2018-06-23T23:33:28.933Z,16.84
2018-06-23T23:35:59.813Z,16.78
2018-06-23T23:38:31.034Z,16.79
2018-06-23T23:41:02.882Z,16.84
2018-06-23T23:43:33.924Z,16.59
2018-06-23T23:46:05.976Z,16.56
2018-06-23T23:48:37.816Z,16.60
2018-06-23T23:51:08.864Z,16.65
2018-06-23T23:53:40.108Z,16.66
2018-06-23T23:56:11.229Z,16.66
2018-06-23T23:58:42.172Z,16.67
